Time;durP1;ratioP1;P1;durP2;ratioP2;P2;SDS_P1;SDS_P2;PMS_P1;PMS_P2;Temp;Humidity;BMP_temperature;BMP_pressure;BME280_temperature;BME280_humidity;BME280_pressure;Samples;Min_cycle;Max_cycle;Signal;HPM_P1;HPM_P2
2023/01/31 00:02:44;;;;;;;27.83;4.65;;;;;;;6.15;95.65;101521.31;8360500;28;20422;-52
2023/01/31 00:06:49;;;;;;;29.40;6.47;;;;;;;6.10;96.22;101532.31;8358797;28;24389;-53
2023/01/31 00:10:50;;;;;;;27.98;6.10;;;;;;;6.07;96.35;101528.97;8360571;28;20041;-53
2023/01/31 00:14:50;;;;;;;25.17;3.75;;;;;;;6.13;95.83;101525.91;8359946;28;20047;-51
2023/01/31 00:18:51;;;;;;;14.88;3.17;;;;;;;6.16;95.46;101526.59;8360363;28;20095;-53
2023/01/31 00:22:52;;;;;;;28.67;5.18;;;;;;;6.16;95.63;101523.91;8358834;28;20041;-52
2023/01/31 00:26:55;;;;;;;29.65;5.28;;;;;;;6.14;95.47;101533.88;8357669;28;20090;-53
2023/01/31 00:30:57;;;;;;;27.48;4.40;;;;;;;6.14;95.18;101524.97;8326935;28;20083;-54
2023/01/31 00:34:59;;;;;;;21.88;3.67;;;;;;;6.19;94.95;101533.63;8326452;28;20033;-57
2023/01/31 00:39:01;;;;;;;21.35;3.58;;;;;;;6.10;94.63;101526.94;8325475;28;20116;-53
2023/01/31 00:43:01;;;;;;;18.67;3.95;;;;;;;5.91;94.91;101520.91;8326896;28;20124;-54
2023/01/31 00:47:02;;;;;;;23.23;4.40;;;;;;;5.78;95.59;101515.34;8326206;28;20037;-53
2023/01/31 00:51:03;;;;;;;15.98;3.35;;;;;;;5.66;95.76;101520.50;8326979;28;20072;-58
2023/01/31 00:55:04;;;;;;;20.10;3.72;;;;;;;5.59;96.47;101529.84;8324486;28;20029;-58
2023/01/31 00:59:07;;;;;;;25.63;4.80;;;;;;;5.43;97.39;101537.00;8324925;28;20124;-58
2023/01/31 01:03:08;;;;;;;21.23;3.25;;;;;;;5.33;97.23;101541.13;8326195;28;20119;-57
2023/01/31 01:07:08;;;;;;;26.25;4.10;;;;;;;5.31;97.63;101545.72;8324479;28;20079;-58
2023/01/31 01:11:15;;;;;;;26.98;3.80;;;;;;;5.17;98.26;101537.53;8326036;28;20044;-58
2023/01/31 01:15:16;;;;;;;24.42;3.72;;;;;;;4.97;99.34;101532.38;8356848;28;20045;-58
2023/01/31 01:19:18;;;;;;;26.05;3.80;;;;;;;4.87;99.87;101541.81;8358555;28;20041;-57
2023/01/31 01:23:20;;;;;;;24.15;3.83;;;;;;;4.99;100.00;101543.84;8342289;28;20041;-57
2023/01/31 01:27:21;;;;;;;17.73;3.63;;;;;;;4.97;100.00;101548.44;8342473;28;20490;-58
2023/01/31 01:31:28;;;;;;;17.15;3.35;;;;;;;5.00;99.96;101549.13;8356466;28;20075;-57
2023/01/31 01:35:30;;;;;;;14.93;3.13;;;;;;;5.12;99.42;101550.31;8325301;28;20034;-57
2023/01/31 01:39:30;;;;;;;15.73;3.63;;;;;;;5.26;98.14;101542.41;8329376;28;20041;-57
2023/01/31 01:43:50;;;;;;;19.50;3.55;;;;;;;5.28;97.97;101545.88;8331472;28;20037;-55
2023/01/31 01:47:55;;;;;;;30.13;3.95;;;;;;;5.37;97.63;101535.50;8326646;28;20045;-58
2023/01/31 01:51:59;;;;;;;19.50;3.97;;;;;;;5.42;96.99;101537.94;8324435;28;20398;-58
2023/01/31 01:56:02;;;;;;;;;;;;;;;5.40;96.78;101535.34;8326729;28;20034;-58
2023/01/31 02:00:24;;;;;;;21.08;4.07;;;;;;;5.39;96.72;101524.69;8330642;28;19921;-59
2023/01/31 02:04:33;;;;;;;24.27;4.70;;;;;;;5.35;96.50;101525.81;8330665;28;20049;-56
2023/01/31 02:08:36;;;;;;;26.20;4.20;;;;;;;5.27;97.80;101528.03;8331367;28;20095;-54
2023/01/31 02:12:37;;;;;;;23.48;4.25;;;;;;;5.24;98.21;101520.16;8341083;28;20082;-58
2023/01/31 02:16:38;;;;;;;28.70;4.30;;;;;;;5.17;99.04;101505.38;8363399;28;20068;-58
2023/01/31 02:34:26;;;;;;;28.75;3.97;;;;;;;4.87;100.00;101515.03;8415072;27;20940;-54
2023/01/31 02:38:42;;;;;;;16.35;3.38;;;;;;;4.92;100.00;101504.94;8404002;27;20046;-56
2023/01/31 02:43:22;;;;;;;17.73;3.78;;;;;;;4.92;100.00;101504.94;8404283;27;20446;-56
2023/01/31 02:48:03;;;;;;;27.15;4.22;;;;;;;4.77;100.00;101511.97;8403354;27;20041;-56
2023/01/31 02:52:35;;;;;;;23.47;4.33;;;;;;;4.60;100.00;101513.81;8400600;27;20041;-56
2023/01/31 02:56:45;;;;;;;19.92;3.90;;;;;;;4.57;100.00;101508.59;8402832;27;20303;-56
2023/01/31 03:00:47;;;;;;;19.70;4.32;;;;;;;4.64;100.00;101499.31;8402978;27;20401;-56
2023/01/31 03:04:47;;;;;;;16.40;3.33;;;;;;;4.75;100.00;101511.19;8423600;27;20126;-58
2023/01/31 03:08:52;;;;;;;23.83;3.80;;;;;;;4.83;99.37;101508.97;8405513;28;20032;-57
2023/01/31 03:13:06;;;;;;;25.77;4.22;;;;;;;4.84;99.19;101501.78;8401717;27;20043;-57
2023/01/31 03:17:31;;;;;;;27.10;4.03;;;;;;;4.82;98.59;101504.53;8400605;27;20490;-57
2023/01/31 03:21:43;;;;;;;23.00;3.53;;;;;;;4.80;99.47;101510.94;8400804;28;20510;-57
2023/01/31 03:25:46;;;;;;;24.60;4.22;;;;;;;4.87;99.27;101506.97;8396425;27;20505;-57
2023/01/31 03:29:48;;;;;;;20.17;4.97;;;;;;;4.93;100.00;101495.94;8401762;27;20041;-57
2023/01/31 03:33:52;;;;;;;31.50;5.05;;;;;;;4.90;99.55;101501.47;8402539;27;20064;-56
2023/01/31 03:38:08;;;;;;;27.30;5.55;;;;;;;4.66;100.00;101508.97;8401688;27;20041;-59
2023/01/31 03:42:18;;;;;;;21.73;4.88;;;;;;;4.39;100.00;101505.03;8397772;27;20064;-57
2023/01/31 03:46:26;;;;;;;25.10;5.50;;;;;;;4.13;100.00;101491.22;8371863;28;20120;-57
2023/01/31 03:50:32;;;;;;;26.17;5.63;;;;;;;3.97;100.00;101486.63;8359986;28;20413;-57
2023/01/31 03:54:39;;;;;;;26.27;5.57;;;;;;;3.97;100.00;101483.94;8362990;28;20402;-55
2023/01/31 03:58:46;;;;;;;27.73;5.55;;;;;;;4.00;100.00;101481.13;8371548;28;20044;-57
2023/01/31 04:02:52;;;;;;;23.75;5.95;;;;;;;3.69;100.00;101494.25;8376027;28;20051;-57
2023/01/31 04:06:53;;;;;;;28.33;6.35;;;;;;;3.73;100.00;101489.63;8379019;28;20028;-57
2023/01/31 04:10:57;;;;;;;29.90;5.82;;;;;;;3.46;100.00;101475.78;8378981;28;20383;-57
2023/01/31 04:14:58;;;;;;;23.63;7.18;;;;;;;3.68;100.00;101476.50;8384180;28;20040;-57
2023/01/31 04:18:58;;;;;;;31.63;8.23;;;;;;;3.63;100.00;101481.19;8395242;28;20056;-57
2023/01/31 04:22:59;;;;;;;30.27;6.68;;;;;;;3.66;100.00;101474.84;8395125;28;20039;-57
2023/01/31 04:27:00;;;;;;;30.63;7.70;;;;;;;3.76;100.00;101476.13;8395187;28;20032;-58
2023/01/31 04:31:00;;;;;;;39.58;9.75;;;;;;;4.04;100.00;101466.69;8395154;28;20429;-56
2023/01/31 04:35:01;;;;;;;25.33;8.05;;;;;;;4.17;100.00;101450.84;8395013;28;20410;-56
2023/01/31 04:39:01;;;;;;;31.42;9.00;;;;;;;4.28;100.00;101458.34;8395296;28;20067;-58
2023/01/31 04:43:02;;;;;;;33.40;9.10;;;;;;;4.36;100.00;101448.13;8394798;28;20036;-57
2023/01/31 04:47:02;;;;;;;37.97;8.52;;;;;;;4.40;100.00;101447.88;8394134;28;20119;-57
2023/01/31 04:51:03;;;;;;;37.55;8.98;;;;;;;4.49;100.00;101438.50;8394345;28;20386;-56
2023/01/31 04:55:03;;;;;;;28.63;8.60;;;;;;;4.52;100.00;101435.66;8392545;28;20049;-55
2023/01/31 04:59:04;;;;;;;32.38;9.13;;;;;;;4.61;100.00;101445.91;8394212;28;20071;-55
2023/01/31 05:03:04;;;;;;;29.52;8.45;;;;;;;4.69;100.00;101438.31;8354615;28;20037;-58
2023/01/31 05:07:05;;;;;;;39.38;8.65;;;;;;;4.75;100.00;101444.22;8377129;28;20041;-55
2023/01/31 05:11:06;;;;;;;39.58;9.65;;;;;;;4.74;100.00;101441.63;8377246;28;20398;-57
2023/01/31 05:15:10;;;;;;;26.30;7.20;;;;;;;4.71;100.00;101441.78;8344354;28;20051;-57
2023/01/31 05:19:10;;;;;;;39.20;8.40;;;;;;;4.76;100.00;101434.38;8344410;28;20139;-57
2023/01/31 05:23:12;;;;;;;26.17;7.90;;;;;;;4.80;100.00;101419.88;8348201;28;20130;-57
2023/01/31 05:27:13;;;;;;;33.85;8.13;;;;;;;4.90;100.00;101431.81;8373368;28;20033;-57
2023/01/31 05:31:13;;;;;;;29.33;8.02;;;;;;;4.98;100.00;101426.91;8370529;28;20570;-55
2023/01/31 05:35:15;;;;;;;27.77;6.72;;;;;;;5.07;100.00;101427.28;8349608;28;20064;-54
2023/01/31 05:39:15;;;;;;;29.75;6.28;;;;;;;5.11;100.00;101425.28;8376802;28;20114;-57
2023/01/31 05:43:16;;;;;;;28.25;5.40;;;;;;;5.19;100.00;101423.91;8374803;28;20048;-57
2023/01/31 05:47:16;;;;;;;30.77;5.75;;;;;;;5.32;100.00;101426.78;8388064;28;20491;-58
2023/01/31 05:51:16;;;;;;;32.95;5.93;;;;;;;5.36;100.00;101428.34;8352462;28;20094;-57
2023/01/31 05:55:17;;;;;;;33.00;6.18;;;;;;;5.37;100.00;101427.41;8335937;28;20501;-56
2023/01/31 05:59:18;;;;;;;21.15;5.55;;;;;;;5.36;100.00;101417.63;8345542;28;20038;-56
2023/01/31 06:03:18;;;;;;;29.58;6.18;;;;;;;5.33;100.00;101410.63;8359576;28;20048;-56
2023/01/31 06:07:19;;;;;;;22.58;5.18;;;;;;;5.31;100.00;101409.00;8364661;28;20401;-53
2023/01/31 06:11:19;;;;;;;22.13;5.28;;;;;;;5.26;100.00;101408.38;8345821;28;20049;-57
2023/01/31 06:15:20;;;;;;;24.50;5.05;;;;;;;5.24;100.00;101407.56;8370938;28;20049;-56
2023/01/31 06:19:24;;;;;;;29.15;6.05;;;;;;;5.28;100.00;101404.63;8378634;28;20047;-56
2023/01/31 06:23:24;;;;;;;25.50;5.75;;;;;;;5.35;99.79;101397.13;8368468;28;20047;-54
2023/01/31 06:27:24;;;;;;;25.63;5.35;;;;;;;5.35;99.91;101403.38;8362677;28;20521;-52
2023/01/31 06:31:25;;;;;;;21.70;4.95;;;;;;;5.44;99.07;101402.84;8358444;28;20041;-53
2023/01/31 06:35:25;;;;;;;21.50;4.35;;;;;;;5.46;98.25;101400.94;8370850;28;20056;-51
2023/01/31 06:39:26;;;;;;;80.65;22.83;;;;;;;5.50;98.07;101398.94;8370960;28;20037;-53
2023/01/31 06:43:26;;;;;;;100.32;29.65;;;;;;;5.53;98.53;101388.06;8347245;28;20223;-52
2023/01/31 06:47:27;;;;;;;44.13;10.82;;;;;;;5.61;96.94;101383.09;8342666;28;20029;-55
2023/01/31 06:51:27;;;;;;;44.00;10.43;;;;;;;5.70;96.76;101393.28;8336834;28;20116;-54
2023/01/31 06:55:27;;;;;;;25.50;5.60;;;;;;;5.74;96.07;101392.19;8346899;28;20028;-55
2023/01/31 06:59:28;;;;;;;32.17;5.63;;;;;;;5.89;93.43;101400.22;8371445;28;20037;-55
2023/01/31 07:03:28;;;;;;;42.03;8.77;;;;;;;5.93;92.48;101395.56;8362972;28;20028;-55
2023/01/31 07:07:29;;;;;;;69.85;19.33;;;;;;;5.90;91.91;101390.38;8351039;28;20033;-55
2023/01/31 07:11:30;;;;;;;29.98;8.93;;;;;;;5.82;91.69;101387.25;8345841;28;20720;-55
2023/01/31 07:15:30;;;;;;;35.40;9.48;;;;;;;5.76;91.55;101399.19;8359603;28;20174;-54
2023/01/31 07:19:30;;;;;;;33.35;5.38;;;;;;;5.77;91.95;101394.69;8352290;28;20095;-54
2023/01/31 07:23:31;;;;;;;15.55;3.58;;;;;;;5.88;91.48;101408.34;8358843;28;20036;-54
2023/01/31 07:27:31;;;;;;;21.13;3.30;;;;;;;5.97;90.75;101418.56;8361292;28;20032;-55
2023/01/31 07:31:32;;;;;;;21.75;3.30;;;;;;;6.01;90.29;101420.97;8382413;28;20036;-54
2023/01/31 07:35:32;;;;;;;13.77;3.38;;;;;;;6.08;90.24;101419.66;8376757;28;20517;-53
2023/01/31 07:39:33;;;;;;;23.73;4.00;;;;;;;6.11;89.92;101415.94;8404767;28;20092;-55
2023/01/31 07:43:34;;;;;;;21.17;3.35;;;;;;;6.10;90.27;101421.41;8392977;28;20064;-54
2023/01/31 07:47:34;;;;;;;18.58;3.55;;;;;;;6.13;90.31;101419.38;8376004;28;20385;-55
2023/01/31 07:51:35;;;;;;;13.73;3.42;;;;;;;6.14;90.27;101413.09;8369982;28;20033;-53
2023/01/31 07:55:35;;;;;;;25.35;3.53;;;;;;;6.14;90.51;101394.28;8340266;28;20190;-53
2023/01/31 07:59:36;;;;;;;21.55;3.63;;;;;;;6.21;90.11;101379.53;8369114;28;20024;-54
2023/01/31 08:03:36;;;;;;;18.80;3.30;;;;;;;6.27;90.72;101364.88;8349882;28;20470;-54
2023/01/31 08:07:37;;;;;;;22.48;3.20;;;;;;;6.35;90.26;101350.03;8374664;28;20067;-55
2023/01/31 08:11:37;;;;;;;17.10;2.55;;;;;;;6.41;90.10;101363.09;8375530;28;20040;-53
2023/01/31 08:15:38;;;;;;;20.88;4.38;;;;;;;6.51;89.43;101377.69;8374516;28;20502;-55
2023/01/31 08:19:38;;;;;;;21.00;4.03;;;;;;;6.56;89.39;101372.88;8381338;28;20045;-54
2023/01/31 08:23:40;;;;;;;15.90;4.07;;;;;;;6.62;89.33;101385.94;8375635;28;20036;-55
2023/01/31 08:27:40;;;;;;;15.63;3.90;;;;;;;6.72;89.71;101376.38;8374304;28;20110;-55
2023/01/31 08:31:41;;;;;;;17.35;3.30;;;;;;;6.81;89.64;101348.03;8374775;28;20089;-55
2023/01/31 08:35:41;;;;;;;22.85;3.97;;;;;;;6.84;89.43;101348.72;8374330;28;20033;-53
2023/01/31 08:39:43;;;;;;;17.42;3.88;;;;;;;6.86;90.16;101349.47;8374912;28;20037;-53
2023/01/31 08:43:43;;;;;;;22.65;4.05;;;;;;;6.93;90.44;101336.53;8374290;28;20047;-53
2023/01/31 08:47:44;;;;;;;21.35;4.00;;;;;;;6.99;90.63;101336.13;8374064;28;20044;-55
2023/01/31 08:51:44;;;;;;;23.25;3.92;;;;;;;7.00;90.20;101333.34;8374263;28;20040;-53
2023/01/31 08:55:45;;;;;;;16.52;3.33;;;;;;;6.98;90.19;101332.56;8381485;28;20218;-53
2023/01/31 08:59:45;;;;;;;20.15;3.92;;;;;;;6.98;90.14;101329.88;8392098;28;20056;-58
2023/01/31 09:03:47;;;;;;;19.60;3.90;;;;;;;6.98;90.06;101324.50;8345378;28;20048;-58
2023/01/31 09:07:47;;;;;;;20.65;4.25;;;;;;;7.11;89.52;101320.06;8363678;28;20032;-59
2023/01/31 09:11:48;;;;;;;27.92;4.32;;;;;;;7.24;89.61;101323.69;8409954;28;20041;-59
2023/01/31 09:16:06;;;;;;;17.13;3.95;;;;;;;7.18;89.50;101324.09;8356438;28;20052;-56
2023/01/31 09:20:08;;;;;;;12.38;3.88;;;;;;;7.26;89.29;101312.84;8370986;28;20119;-54
2023/01/31 09:24:10;;;;;;;25.33;3.63;;;;;;;7.23;90.08;101308.50;8373356;28;20413;-55
2023/01/31 09:28:11;;;;;;;19.55;3.92;;;;;;;7.25;89.79;101301.22;8373236;28;20091;-53
2023/01/31 09:32:11;;;;;;;19.38;3.40;;;;;;;7.30;90.36;101303.59;8375276;28;20041;-54
2023/01/31 09:36:15;;;;;;;21.80;4.40;;;;;;;7.31;90.88;101300.81;8372396;28;20040;-55
2023/01/31 09:40:22;;;;;;;;;;;;;;;7.45;90.99;101319.59;8371479;28;20037;-55
2023/01/31 09:44:30;;;;;;;21.40;3.97;;;;;;;7.57;90.50;101318.75;8372443;28;19918;-54
2023/01/31 09:48:35;;;;;;;24.75;4.45;;;;;;;7.59;89.96;101318.66;8372670;28;20122;-54
2023/01/31 09:52:37;;;;;;;23.08;4.15;;;;;;;7.59;89.91;101316.84;8371269;28;20600;-54
2023/01/31 09:56:47;;;;;;;17.30;3.63;;;;;;;7.61;89.99;101314.94;8372075;28;20114;-56
2023/01/31 10:00:58;;;;;;;22.90;5.20;;;;;;;7.63;90.92;101318.34;8370304;28;20143;-54
2023/01/31 10:09:38;;;;;;;19.83;4.07;;;;;;;7.69;89.99;101309.88;8350419;27;20396;-54
2023/01/31 10:13:50;;;;;;;24.33;4.95;;;;;;;7.72;89.16;101306.97;8362400;28;20033;-52
2023/01/31 10:17:57;;;;;;;24.98;4.75;;;;;;;7.78;89.54;101306.56;8350626;28;20041;-52
2023/01/31 10:22:06;;;;;;;23.15;4.50;;;;;;;7.86;89.74;101293.47;8350496;28;20030;-53
2023/01/31 10:26:15;;;;;;;15.40;4.03;;;;;;;7.89;89.13;101295.06;8350090;28;20114;-57
2023/01/31 10:30:20;;;;;;;18.70;4.10;;;;;;;7.92;89.58;101298.44;8350598;28;20453;-57
2023/01/31 10:34:28;;;;;;;19.70;4.78;;;;;;;8.01;89.49;101292.41;8349703;28;20090;-56
2023/01/31 10:38:38;;;;;;;20.35;4.45;;;;;;;8.05;89.18;101277.75;8320969;28;20103;-56
2023/01/31 10:42:39;;;;;;;21.95;5.63;;;;;;;8.22;88.50;101262.25;8339415;28;20500;-56
2023/01/31 10:46:39;;;;;;;18.02;4.25;;;;;;;8.24;88.44;101244.19;8316296;28;20415;-57
2023/01/31 10:50:53;;;;;;;18.70;4.63;;;;;;;8.33;89.39;101249.81;8333797;28;20352;-57
2023/01/31 10:59:37;;;;;;;14.55;4.15;;;;;;;8.28;88.90;101222.31;8352424;27;20417;-54
2023/01/31 11:03:39;;;;;;;17.23;3.75;;;;;;;8.45;88.84;101221.97;8346426;28;20049;-57
2023/01/31 11:07:40;;;;;;;17.75;4.10;;;;;;;8.57;86.98;101214.84;8317625;28;20121;-55
2023/01/31 11:11:58;;;;;;;23.50;5.20;;;;;;;8.60;87.45;101203.84;8328265;28;20049;-57
2023/01/31 11:16:01;;;;;;;12.30;3.50;;;;;;;8.64;86.90;101205.34;8284280;28;20030;-57
2023/01/31 11:20:05;;;;;;;12.57;3.58;;;;;;;8.80;86.84;101189.75;8314435;28;20046;-58
2023/01/31 11:24:16;;;;;;;17.55;3.33;;;;;;;8.85;85.39;101166.91;8305333;28;20034;-57
2023/01/31 11:28:22;;;;;;;13.38;3.30;;;;;;;8.95;86.14;101172.44;8304580;28;20049;-55
2023/01/31 11:32:26;;;;;;;10.02;2.95;;;;;;;9.02;85.99;101150.31;8331453;28;20054;-58
2023/01/31 11:36:31;;;;;;;;;;;;;;;9.12;87.05;101158.56;8316641;28;20525;-58
2023/01/31 11:40:35;;;;;;;13.07;3.35;;;;;;;9.19;85.83;101152.59;8316721;28;19960;-57
2023/01/31 11:44:35;;;;;;;12.10;3.03;;;;;;;9.05;88.11;101152.78;8347561;28;20080;-57
2023/01/31 11:48:41;;;;;;;19.77;3.95;;;;;;;9.02;87.30;101144.03;8316490;28;20037;-53
2023/01/31 11:52:42;;;;;;;12.10;3.50;;;;;;;9.16;87.63;101146.56;8317504;28;20562;-53
2023/01/31 11:56:44;;;;;;;13.07;3.67;;;;;;;9.22;86.56;101136.19;8321959;28;20431;-54
2023/01/31 12:00:56;;;;;;;12.85;3.60;;;;;;;9.32;87.11;101120.13;8304139;28;20041;-57
2023/01/31 12:04:57;;;;;;;10.60;3.28;;;;;;;9.27;87.42;101114.25;8306236;28;20062;-57
2023/01/31 12:09:00;;;;;;;13.85;3.22;;;;;;;9.29;88.04;101101.47;8304351;28;20354;-54
2023/01/31 12:13:11;;;;;;;13.25;3.20;;;;;;;9.26;88.25;101099.03;8293776;28;20042;-55
2023/01/31 12:17:14;;;;;;;10.50;3.10;;;;;;;9.33;89.00;101102.97;8293353;28;20045;-54
2023/01/31 12:21:26;;;;;;;8.38;2.40;;;;;;;9.31;89.50;101099.53;8292571;28;20041;-52
2023/01/31 12:25:43;;;;;;;10.88;3.25;;;;;;;10.09;87.16;101087.88;8292615;28;20100;-53
2023/01/31 12:30:16;;;;;;;10.13;2.80;;;;;;;10.02;87.06;101102.81;8304074;28;20041;-53
2023/01/31 12:34:38;;;;;;;7.80;2.70;;;;;;;9.52;88.52;101084.38;8325608;28;20121;-54
2023/01/31 12:39:07;;;;;;;9.45;3.33;;;;;;;9.30;90.20;101077.06;8326027;28;20042;-54
2023/01/31 12:43:38;;;;;;;8.18;3.58;;;;;;;9.07;91.55;101104.09;8303435;28;20128;-54
2023/01/31 12:48:10;;;;;;;10.48;3.28;;;;;;;9.01;92.53;101091.09;8320736;28;20072;-54
2023/01/31 12:52:38;;;;;;;9.82;3.72;;;;;;;9.02;92.97;101098.19;8290536;28;20107;-53
2023/01/31 12:57:05;;;;;;;7.22;3.80;;;;;;;8.99;93.18;101103.81;8292538;28;20092;-53
2023/01/31 13:01:12;;;;;;;11.73;4.35;;;;;;;8.97;93.02;101106.63;8287742;28;20056;-54
2023/01/31 13:05:39;;;;;;;10.38;3.75;;;;;;;8.93;93.54;101099.75;8275288;28;20042;-54
2023/01/31 13:09:39;;;;;;;8.48;4.07;;;;;;;8.90;93.90;101091.03;8270341;28;20129;-53
2023/01/31 13:13:47;;;;;;;12.55;4.50;;;;;;;8.89;93.59;101081.22;8283044;28;20039;-54
2023/01/31 13:17:53;;;;;;;14.10;4.75;;;;;;;8.81;93.98;101089.06;8291017;28;20100;-59
2023/01/31 13:22:00;;;;;;;12.75;4.88;;;;;;;8.84;94.74;101094.22;8289874;28;20096;-57
2023/01/31 13:26:13;;;;;;;15.10;5.20;;;;;;;8.85;93.97;101085.13;8274706;28;20518;-54
2023/01/31 13:30:23;;;;;;;11.05;5.13;;;;;;;8.83;94.16;101073.59;8297559;28;20864;-57
2023/01/31 13:34:36;;;;;;;12.95;5.05;;;;;;;8.82;94.53;101096.16;8270852;28;20034;-60
2023/01/31 13:38:41;;;;;;;12.10;6.35;;;;;;;8.69;94.61;101089.97;8282574;28;20117;-59
2023/01/31 13:42:41;;;;;;;10.98;5.65;;;;;;;8.67;95.49;101097.31;8274102;28;20410;-58
2023/01/31 13:51:14;;;;;;;13.93;6.43;;;;;;;8.64;95.99;101102.91;8320984;28;20948;-57
2023/01/31 13:55:18;;;;;;;;;;;;;;;8.64;96.22;101097.53;8318102;28;20044;-58
2023/01/31 13:59:23;;;;;;;13.45;7.10;;;;;;;8.60;96.88;101101.44;8316556;28;19924;-59
2023/01/31 14:03:24;;;;;;;;;;;;;;;8.55;98.49;101090.13;8318129;28;20095;-59
2023/01/31 14:07:24;;;;;;;21.60;6.88;;;;;;;8.52;99.76;101098.44;8315694;28;19992;-57
2023/01/31 14:15:48;;;;;;;18.48;7.57;;;;;;;8.40;100.00;101094.81;8318556;27;20465;-57
2023/01/31 14:19:54;;;;;;;14.35;7.10;;;;;;;8.38;100.00;101106.69;8317790;28;20038;-57
2023/01/31 14:23:57;;;;;;;17.50;7.70;;;;;;;8.33;100.00;101104.34;8316063;28;20100;-56
2023/01/31 14:32:24;;;;;;;16.85;8.00;;;;;;;8.31;100.00;101097.31;8319315;28;20973;-57
2023/01/31 14:36:42;;;;;;;14.30;7.20;;;;;;;8.35;100.00;101106.91;8301126;28;20125;-56
2023/01/31 14:41:01;;;;;;;19.52;8.55;;;;;;;8.31;100.00;101105.41;8257022;28;20089;-58
2023/01/31 14:45:31;;;;;;;14.77;8.48;;;;;;;8.31;100.00;101090.09;8284087;28;20034;-55
2023/01/31 14:50:05;;;;;;;16.65;8.30;;;;;;;8.32;100.00;101096.38;8283922;28;20577;-57
2023/01/31 14:58:23;;;;;;;16.00;8.23;;;;;;;8.32;100.00;101091.81;8314497;28;20503;-57
2023/01/31 15:06:48;;;;;;;13.98;7.95;;;;;;;8.31;100.00;101100.00;8317347;28;20835;-55
2023/01/31 15:11:05;;;;;;;16.88;7.80;;;;;;;8.31;100.00;101090.09;8317812;28;20042;-58
2023/01/31 15:15:25;;;;;;;12.52;7.18;;;;;;;8.33;100.00;101106.16;8317135;28;20096;-57
2023/01/31 15:19:30;;;;;;;14.10;7.30;;;;;;;8.37;100.00;101108.50;8315669;28;20068;-56
2023/01/31 15:23:33;;;;;;;10.95;6.93;;;;;;;8.32;100.00;101115.22;8313976;28;20575;-55
2023/01/31 15:27:41;;;;;;;9.43;6.28;;;;;;;8.29;100.00;101104.66;8312718;28;20139;-57
2023/01/31 15:31:45;;;;;;;11.10;7.03;;;;;;;8.25;100.00;101105.84;8315066;28;20060;-57
2023/01/31 15:35:53;;;;;;;14.45;7.47;;;;;;;8.20;100.00;101140.31;8316418;28;20061;-58
2023/01/31 15:39:57;;;;;;;10.90;7.32;;;;;;;8.20;100.00;101137.63;8313890;28;20136;-56
2023/01/31 15:44:18;;;;;;;13.57;7.80;;;;;;;8.24;100.00;101139.16;8303011;28;20045;-54
2023/01/31 15:48:20;;;;;;;13.18;7.75;;;;;;;8.21;100.00;101136.66;8289056;28;20565;-54
2023/01/31 15:52:21;;;;;;;13.13;8.38;;;;;;;8.15;100.00;101132.56;8293492;28;20046;-54
2023/01/31 15:56:24;;;;;;;10.15;6.50;;;;;;;8.27;100.00;101133.53;8310729;28;20496;-55
2023/01/31 16:00:31;;;;;;;10.02;7.85;;;;;;;8.39;100.00;101135.34;8300747;28;20085;-54
2023/01/31 16:04:32;;;;;;;11.52;7.72;;;;;;;8.36;100.00;101143.66;8300885;28;20262;-54
2023/01/31 16:08:35;;;;;;;17.17;9.60;;;;;;;8.32;100.00;101144.84;8290371;28;20324;-53
2023/01/31 16:12:41;;;;;;;12.75;9.15;;;;;;;8.31;100.00;101143.09;8302194;28;20571;-54
2023/01/31 16:16:46;;;;;;;17.10;10.07;;;;;;;8.26;100.00;101139.91;8291151;28;20039;-53
2023/01/31 16:20:49;;;;;;;18.23;9.45;;;;;;;8.27;100.00;101147.88;8293969;28;20514;-54
2023/01/31 16:24:54;;;;;;;13.85;9.20;;;;;;;8.27;100.00;101163.16;8271297;28;20552;-52
2023/01/31 16:28:58;;;;;;;19.08;9.73;;;;;;;8.29;100.00;101158.53;8269155;28;20046;-52
2023/01/31 16:33:00;;;;;;;18.20;10.50;;;;;;;8.27;100.00;101157.78;8287553;28;20282;-53
2023/01/31 16:37:04;;;;;;;19.90;10.60;;;;;;;8.29;100.00;101163.94;8290112;28;20568;-54
2023/01/31 16:41:09;;;;;;;19.55;11.35;;;;;;;8.29;100.00;101169.31;8271989;28;20535;-55
2023/01/31 16:45:30;;;;;;;18.83;10.95;;;;;;;8.28;100.00;101159.50;8265846;28;20042;-55
2023/01/31 16:49:35;;;;;;;16.05;10.93;;;;;;;8.31;100.00;101159.28;8275614;28;20506;-56
2023/01/31 16:53:38;;;;;;;21.95;10.80;;;;;;;8.30;100.00;101169.22;8256391;28;20042;-55
2023/01/31 16:57:39;;;;;;;17.03;10.80;;;;;;;8.27;100.00;101168.56;8304671;28;20034;-57
2023/01/31 17:01:39;;;;;;;17.95;11.07;;;;;;;8.29;100.00;101172.00;8279415;28;20521;-57
2023/01/31 17:05:43;;;;;;;16.17;10.50;;;;;;;8.27;100.00;101166.75;8272088;28;20617;-55
2023/01/31 17:09:46;;;;;;;16.33;10.33;;;;;;;8.27;100.00;101176.63;8283065;28;20056;-58
2023/01/31 17:13:46;;;;;;;18.25;11.07;;;;;;;8.29;100.00;101180.09;8277400;28;20054;-54
2023/01/31 17:17:47;;;;;;;15.48;11.32;;;;;;;8.29;100.00;101180.94;8274276;28;20047;-56
2023/01/31 17:21:48;;;;;;;16.42;11.32;;;;;;;8.34;100.00;101194.06;8273571;28;20054;-57
2023/01/31 17:25:49;;;;;;;18.52;11.30;;;;;;;8.35;100.00;101188.56;8283347;28;20045;-56
2023/01/31 17:29:49;;;;;;;19.80;11.77;;;;;;;8.35;100.00;101198.50;8288068;28;20040;-55
2023/01/31 17:33:50;;;;;;;16.95;12.52;;;;;;;8.36;100.00;101195.72;8289202;28;20069;-57
2023/01/31 17:37:51;;;;;;;21.20;13.18;;;;;;;8.37;100.00;101191.16;8290707;28;20414;-57
2023/01/31 17:41:51;;;;;;;22.10;13.25;;;;;;;8.38;100.00;101209.06;8289534;28;20088;-54
2023/01/31 17:45:52;;;;;;;26.05;14.43;;;;;;;8.41;100.00;101198.91;8285431;28;20053;-57
2023/01/31 17:49:53;;;;;;;24.90;14.25;;;;;;;8.40;100.00;101191.81;8288872;28;20038;-57
2023/01/31 17:53:54;;;;;;;24.05;14.25;;;;;;;8.40;100.00;101196.31;8288913;28;20380;-56
2023/01/31 17:57:54;;;;;;;25.63;15.18;;;;;;;8.39;100.00;101178.44;8289564;28;20037;-54
2023/01/31 18:01:55;;;;;;;30.85;16.55;;;;;;;8.40;100.00;101177.47;8287083;28;20041;-57
2023/01/31 18:06:02;;;;;;;28.23;17.15;;;;;;;8.41;100.00;101165.72;8278912;28;20503;-57
2023/01/31 18:10:04;;;;;;;31.00;16.10;;;;;;;8.43;100.00;101170.03;8288341;28;20400;-57
2023/01/31 18:14:04;;;;;;;36.67;17.80;;;;;;;8.41;100.00;101165.72;8287305;28;20512;-57
2023/01/31 18:18:07;;;;;;;27.85;16.90;;;;;;;8.41;100.00;101165.72;8279584;28;20446;-54
2023/01/31 18:22:07;;;;;;;24.33;14.93;;;;;;;8.45;100.00;101178.00;8269604;28;20046;-56
2023/01/31 18:26:10;;;;;;;23.15;13.20;;;;;;;8.47;100.00;101170.66;8261216;28;20097;-57
2023/01/31 18:30:11;;;;;;;22.98;10.93;;;;;;;8.49;100.00;101160.63;8269564;28;20049;-56
2023/01/31 18:34:11;;;;;;;15.55;7.55;;;;;;;8.49;100.00;101168.72;8274248;28;20045;-56
2023/01/31 18:38:12;;;;;;;22.73;7.72;;;;;;;8.45;100.00;101173.47;8285665;28;20038;-55
2023/01/31 18:42:12;;;;;;;17.15;6.18;;;;;;;8.35;100.00;101179.66;8249842;28;20058;-56
2023/01/31 18:46:15;;;;;;;13.00;5.60;;;;;;;8.19;100.00;101181.66;8286138;28;20852;-58
2023/01/31 18:50:16;;;;;;;9.35;4.18;;;;;;;8.05;100.00;101186.22;8274253;28;20042;-56
2023/01/31 18:54:17;;;;;;;16.77;6.07;;;;;;;7.96;100.00;101186.84;8275257;28;20373;-53
2023/01/31 18:58:18;;;;;;;14.32;5.25;;;;;;;7.84;100.00;101184.19;8263695;28;20042;-55
2023/01/31 19:02:18;;;;;;;14.50;5.20;;;;;;;7.82;100.00;101194.19;8283587;28;20037;-57
2023/01/31 19:06:22;;;;;;;15.63;4.65;;;;;;;7.80;100.00;101185.34;8283782;28;20042;-58
2023/01/31 19:10:22;;;;;;;14.27;4.45;;;;;;;7.78;100.00;101193.53;8284420;28;20366;-58
2023/01/31 19:14:23;;;;;;;16.58;4.20;;;;;;;7.68;100.00;101184.38;8271048;28;20078;-56
2023/01/31 19:18:24;;;;;;;15.95;4.00;;;;;;;7.65;100.00;101187.28;8283507;28;20042;-56
2023/01/31 19:22:27;;;;;;;19.75;6.90;;;;;;;7.62;100.00;101182.09;8283683;28;20041;-52
2023/01/31 19:26:28;;;;;;;20.13;6.90;;;;;;;7.73;100.00;101174.16;8282564;28;20230;-54
2023/01/31 19:30:30;;;;;;;18.08;8.70;;;;;;;7.79;100.00;101173.72;8284060;28;20396;-54
2023/01/31 19:34:30;;;;;;;27.27;13.90;;;;;;;7.80;100.00;101172.75;8276224;28;20049;-55
2023/01/31 19:38:31;;;;;;;33.22;16.33;;;;;;;7.78;100.00;101172.00;8281590;28;20287;-53